createdAt,value
2023-05-11T00:01:10.199Z,12.90
2023-05-11T00:03:38.564Z,12.90
2023-05-11T00:06:06.735Z,12.90
2023-05-11T00:08:34.961Z,12.90
2023-05-11T00:11:02.971Z,12.90
2023-05-11T00:13:31.486Z,12.90
2023-05-11T00:15:59.222Z,12.90
2023-05-11T00:18:27.214Z,12.90
2023-05-11T00:20:54.997Z,12.90
2023-05-11T00:23:22.949Z,13.00
2023-05-11T00:25:50.931Z,13.00
2023-05-11T00:28:18.952Z,13.00
2023-05-11T00:30:46.981Z,13.00
2023-05-11T00:33:15.281Z,13.00
2023-05-11T00:35:43.949Z,13.00
2023-05-11T00:38:12.304Z,13.00
2023-05-11T00:40:40.226Z,13.00
2023-05-11T00:43:08.975Z,13.00
2023-05-11T00:45:37.471Z,13.00
2023-05-11T00:48:06.402Z,12.90
2023-05-11T00:50:36.478Z,12.90
2023-05-11T00:53:04.749Z,12.90
2023-05-11T00:55:32.556Z,12.90
2023-05-11T00:58:02.660Z,13.00
2023-05-11T01:00:30.660Z,13.00
2023-05-11T01:03:01.672Z,13.00
2023-05-11T01:06:07.058Z,13.00
2023-05-11T01:08:51.364Z,13.00
2023-05-11T01:12:12.533Z,13.10
2023-05-11T01:15:08.889Z,13.10
2023-05-11T01:18:15.377Z,13.10
2023-05-11T01:20:50.165Z,13.10
2023-05-11T01:23:53.682Z,13.00
2023-05-11T01:27:02.689Z,13.00
2023-05-11T01:30:29.370Z,13.00
2023-05-11T01:33:12.613Z,13.00
2023-05-11T01:35:53.730Z,13.00
2023-05-11T01:38:31.678Z,12.90
2023-05-11T01:41:11.759Z,12.90
2023-05-11T01:43:45.610Z,13.00
2023-05-11T01:46:17.282Z,13.00
2023-05-11T01:48:52.677Z,13.00
2023-05-11T01:51:24.100Z,13.00
2023-05-11T01:53:55.542Z,12.90
2023-05-11T01:56:26.932Z,12.90
2023-05-11T01:58:59.896Z,12.90
2023-05-11T02:01:32.209Z,12.90
2023-05-11T02:04:05.136Z,12.90
2023-05-11T02:06:38.376Z,13.00
2023-05-11T02:09:10.986Z,13.00
2023-05-11T02:11:42.952Z,13.00
2023-05-11T02:14:13.409Z,12.90
2023-05-11T02:16:43.445Z,12.90
2023-05-11T02:19:14.684Z,12.90
2023-05-11T02:21:45.106Z,12.90
2023-05-11T02:24:14.634Z,12.90
2023-05-11T02:26:42.856Z,12.90
2023-05-11T02:29:11.140Z,12.90
2023-05-11T02:31:53.028Z,12.90
2023-05-11T02:34:35.697Z,12.90
2023-05-11T02:37:15.474Z,12.90
2023-05-11T02:39:53.207Z,12.90
2023-05-11T02:42:26.623Z,12.90
2023-05-11T02:45:08.978Z,12.90
2023-05-11T02:47:59.149Z,12.80
2023-05-11T02:50:36.014Z,12.80
2023-05-11T02:53:15.906Z,12.90
2023-05-11T02:55:46.201Z,12.80
2023-05-11T02:58:14.820Z,12.80
2023-05-11T03:00:48.118Z,12.80
2023-05-11T03:03:16.649Z,12.80
2023-05-11T03:05:44.675Z,12.90
2023-05-11T03:08:12.759Z,12.80
2023-05-11T03:10:42.558Z,12.90
2023-05-11T03:13:11.088Z,12.90
2023-05-11T03:15:40.789Z,12.80
2023-05-11T03:18:11.639Z,12.80
2023-05-11T03:20:44.759Z,12.80
2023-05-11T03:23:17.122Z,12.80
2023-05-11T03:25:47.429Z,12.80
2023-05-11T03:28:18.860Z,12.80
2023-05-11T03:30:57.238Z,12.80
2023-05-11T03:33:25.678Z,12.80
2023-05-11T03:35:56.297Z,12.80
2023-05-11T03:38:31.034Z,12.70
2023-05-11T03:41:01.681Z,12.70
2023-05-11T03:43:37.421Z,12.70
2023-05-11T03:46:07.414Z,12.60
2023-05-11T03:48:36.161Z,12.60
2023-05-11T03:51:06.054Z,12.60
2023-05-11T03:53:34.668Z,12.60
2023-05-11T03:56:07.335Z,12.60
2023-05-11T03:58:42.678Z,12.60
2023-05-11T04:01:14.093Z,12.60
2023-05-11T04:03:54.279Z,12.60
2023-05-11T04:06:24.297Z,12.60
2023-05-11T04:09:06.985Z,12.60
2023-05-11T04:11:39.703Z,12.50
2023-05-11T04:14:07.722Z,12.50
2023-05-11T04:16:36.122Z,12.60
2023-05-11T04:19:04.273Z,12.50
2023-05-11T04:21:32.748Z,12.50
2023-05-11T04:24:01.104Z,12.50
2023-05-11T04:26:29.679Z,12.50
2023-05-11T04:28:59.264Z,12.50
2023-05-11T04:31:30.427Z,12.60
2023-05-11T04:34:00.284Z,12.60
2023-05-11T04:36:31.410Z,12.60
2023-05-11T04:39:02.067Z,12.60
2023-05-11T04:41:30.187Z,12.70
2023-05-11T04:44:00.358Z,12.60
2023-05-11T04:46:29.100Z,12.70
2023-05-11T04:48:56.947Z,12.80
2023-05-11T04:51:24.789Z,12.80
2023-05-11T04:53:52.758Z,12.80
2023-05-11T04:56:21.639Z,12.80
2023-05-11T04:58:50.922Z,12.80
2023-05-11T05:01:19.080Z,12.80
2023-05-11T05:03:50.110Z,12.80
2023-05-11T05:06:18.463Z,12.80
2023-05-11T05:08:46.380Z,12.80
2023-05-11T05:11:14.614Z,12.80
2023-05-11T05:13:42.864Z,12.70
2023-05-11T05:16:10.844Z,12.80
2023-05-11T05:18:38.603Z,12.80
2023-05-11T05:21:07.155Z,12.80
2023-05-11T05:23:35.037Z,12.90
2023-05-11T05:26:02.799Z,13.00
2023-05-11T05:28:32.203Z,13.10
2023-05-11T05:31:00.408Z,13.20
2023-05-11T05:33:29.027Z,13.30
2023-05-11T05:35:57.574Z,13.50
2023-05-11T05:38:25.474Z,13.70
2023-05-11T05:40:54.671Z,13.60
2023-05-11T05:43:22.540Z,13.70
2023-05-11T05:45:50.712Z,13.70
2023-05-11T05:48:19.769Z,14.00
2023-05-11T05:50:48.145Z,13.90
2023-05-11T05:53:16.147Z,14.00
2023-05-11T05:55:43.958Z,13.80
2023-05-11T05:58:12.714Z,13.60
2023-05-11T06:00:41.176Z,13.60
2023-05-11T06:03:11.686Z,13.50
2023-05-11T06:05:39.572Z,13.60
2023-05-11T06:08:11.118Z,13.40
2023-05-11T06:10:40.614Z,13.40
2023-05-11T06:13:10.556Z,13.30
2023-05-11T06:15:43.223Z,13.30
2023-05-11T06:18:19.728Z,13.40
2023-05-11T06:20:48.643Z,13.60
2023-05-11T06:23:18.436Z,13.80
2023-05-11T06:25:46.734Z,13.90
2023-05-11T06:28:14.507Z,14.10
2023-05-11T06:30:42.473Z,14.00
2023-05-11T06:33:11.140Z,14.00
2023-05-11T06:35:40.573Z,15.00
2023-05-11T06:38:10.620Z,16.50
2023-05-11T06:40:38.639Z,17.10
2023-05-11T06:43:06.709Z,17.80
2023-05-11T06:45:50.169Z,17.00
2023-05-11T06:48:18.473Z,16.30
2023-05-11T06:50:46.517Z,15.40
2023-05-11T06:53:14.584Z,15.00
2023-05-11T06:55:42.462Z,15.20
2023-05-11T06:58:10.384Z,15.00
2023-05-11T07:00:38.261Z,15.00
2023-05-11T07:03:07.852Z,15.20
2023-05-11T07:05:37.984Z,16.10
2023-05-11T07:08:06.569Z,17.30
2023-05-11T07:10:34.493Z,18.20
2023-05-11T07:13:02.716Z,19.40
2023-05-11T07:15:30.874Z,17.90
2023-05-11T07:17:59.243Z,16.50
2023-05-11T07:20:27.580Z,15.90
2023-05-11T07:23:01.081Z,15.30
2023-05-11T07:25:29.149Z,15.50
2023-05-11T07:27:57.948Z,15.80
2023-05-11T07:30:26.169Z,15.90
2023-05-11T07:32:54.506Z,16.90
2023-05-11T07:35:24.176Z,17.90
2023-05-11T07:37:52.337Z,18.80
2023-05-11T07:40:20.677Z,18.40
2023-05-11T07:42:48.862Z,18.10
2023-05-11T07:45:16.823Z,18.30
2023-05-11T07:47:45.225Z,18.40
2023-05-11T07:50:13.119Z,18.70
2023-05-11T07:52:41.274Z,19.10
2023-05-11T07:55:10.182Z,20.20
2023-05-11T07:57:38.092Z,20.40
2023-05-11T08:00:08.295Z,20.20
2023-05-11T08:02:44.991Z,20.60
2023-05-11T08:05:12.966Z,21.40
2023-05-11T08:07:41.744Z,21.60
2023-05-11T08:10:10.863Z,21.10
2023-05-11T08:12:40.283Z,20.00
2023-05-11T08:15:09.824Z,18.70
2023-05-11T08:17:37.738Z,18.00
2023-05-11T08:20:07.290Z,17.10
2023-05-11T08:22:35.335Z,17.30
2023-05-11T08:25:05.774Z,17.40
2023-05-11T08:27:33.856Z,17.50
2023-05-11T08:30:03.817Z,16.80
2023-05-11T08:32:33.479Z,16.10
2023-05-11T08:35:08.453Z,15.70
2023-05-11T08:37:36.587Z,15.70
2023-05-11T08:40:05.541Z,15.80
2023-05-11T08:42:35.622Z,15.80
2023-05-11T08:45:06.614Z,15.50
2023-05-11T08:47:35.794Z,15.30
2023-05-11T08:50:04.021Z,15.40
2023-05-11T08:52:32.633Z,15.50
2023-05-11T08:55:00.977Z,15.60
2023-05-11T08:57:36.748Z,15.80
2023-05-11T09:00:07.524Z,16.00
2023-05-11T09:02:36.497Z,16.10
2023-05-11T09:05:06.016Z,16.10
2023-05-11T09:07:42.151Z,16.00
2023-05-11T09:10:13.528Z,15.90
2023-05-11T09:12:42.282Z,15.80
2023-05-11T09:15:11.659Z,15.70
2023-05-11T09:17:39.703Z,15.70
2023-05-11T09:20:09.583Z,15.60
2023-05-11T09:23:11.350Z,15.70
2023-05-11T09:25:45.917Z,15.60
2023-05-11T09:28:24.900Z,15.50
2023-05-11T09:30:54.204Z,15.50
2023-05-11T09:33:25.926Z,15.60
2023-05-11T09:35:54.662Z,15.70
2023-05-11T09:38:26.316Z,15.60
2023-05-11T09:40:57.106Z,15.50
2023-05-11T09:43:30.642Z,15.60
2023-05-11T09:46:07.770Z,15.80
2023-05-11T09:48:36.061Z,16.10
2023-05-11T09:51:08.974Z,16.40
2023-05-11T09:53:46.360Z,16.50
2023-05-11T09:56:15.820Z,17.10
2023-05-11T09:58:57.498Z,17.50
2023-05-11T10:01:35.683Z,17.20
2023-05-11T10:04:22.171Z,17.30
2023-05-11T10:06:54.075Z,17.40
2023-05-11T10:09:27.470Z,17.60
2023-05-11T10:11:57.253Z,17.90
2023-05-11T10:14:29.646Z,17.90
2023-05-11T10:17:01.674Z,17.40
2023-05-11T10:19:30.105Z,17.20
2023-05-11T10:22:00.730Z,17.30
2023-05-11T10:24:29.616Z,18.00
2023-05-11T10:26:59.185Z,17.80
2023-05-11T10:29:33.530Z,17.70
2023-05-11T10:32:04.636Z,17.60
2023-05-11T10:34:34.924Z,17.70
2023-05-11T10:37:07.633Z,17.80
2023-05-11T10:39:41.318Z,17.50
2023-05-11T10:42:54.148Z,17.40
2023-05-11T10:45:59.932Z,17.10
2023-05-11T10:49:37.047Z,17.60
2023-05-11T10:52:39.065Z,17.20
2023-05-11T10:56:07.133Z,16.60
2023-05-11T10:59:50.865Z,16.20
2023-05-11T11:02:19.624Z,16.00
2023-05-11T11:04:52.048Z,15.70
2023-05-11T11:07:21.121Z,15.70
2023-05-11T11:10:09.325Z,15.70
2023-05-11T11:12:37.905Z,15.60
2023-05-11T11:15:09.207Z,15.60
2023-05-11T11:17:37.950Z,15.60
2023-05-11T11:20:08.678Z,15.30
2023-05-11T11:22:36.802Z,15.20
2023-05-11T11:25:10.222Z,15.10
2023-05-11T11:27:41.243Z,15.00
2023-05-11T11:30:30.699Z,14.90
2023-05-11T11:33:13.709Z,14.90
2023-05-11T11:35:42.013Z,14.90
2023-05-11T11:38:18.135Z,14.90
2023-05-11T11:40:54.806Z,14.80
2023-05-11T11:43:43.792Z,14.90
2023-05-11T11:46:30.586Z,15.00
2023-05-11T11:49:10.354Z,15.00
2023-05-11T11:51:40.539Z,15.00
2023-05-11T11:54:09.223Z,15.00
2023-05-11T11:56:42.445Z,14.90
2023-05-11T11:59:16.260Z,15.00
2023-05-11T12:01:51.379Z,15.00
2023-05-11T12:05:13.457Z,15.00
2023-05-11T12:07:53.987Z,14.90
2023-05-11T12:10:24.107Z,14.90
2023-05-11T12:12:59.326Z,15.00
2023-05-11T12:15:34.999Z,15.00
2023-05-11T12:18:03.529Z,15.10
2023-05-11T12:20:33.024Z,15.20
2023-05-11T12:23:02.494Z,15.30
2023-05-11T12:25:30.151Z,15.30
2023-05-11T12:28:01.205Z,15.30
2023-05-11T12:30:35.508Z,15.30
2023-05-11T12:33:04.694Z,15.60
2023-05-11T12:35:35.040Z,15.60
2023-05-11T12:38:03.393Z,15.80
2023-05-11T12:40:32.393Z,16.30
2023-05-11T12:43:01.515Z,16.30
2023-05-11T12:45:30.222Z,16.50
2023-05-11T12:47:59.684Z,16.60
2023-05-11T12:50:27.678Z,16.90
2023-05-11T12:53:11.847Z,16.90
2023-05-11T12:55:40.294Z,17.00
2023-05-11T12:58:18.986Z,17.10
2023-05-11T13:01:00.072Z,17.20
2023-05-11T13:03:35.487Z,17.40
2023-05-11T13:06:14.243Z,17.70
2023-05-11T13:08:47.886Z,17.80
2023-05-11T13:11:27.456Z,17.70
2023-05-11T13:13:57.825Z,17.70
2023-05-11T13:16:32.015Z,17.50
2023-05-11T13:19:10.744Z,17.40
2023-05-11T13:21:39.139Z,17.50
2023-05-11T13:24:07.450Z,17.70
2023-05-11T13:26:35.422Z,17.70
2023-05-11T13:29:10.108Z,17.50
2023-05-11T13:31:52.690Z,17.60
2023-05-11T13:34:21.677Z,17.30
2023-05-11T13:36:49.888Z,17.30
2023-05-11T13:39:17.987Z,17.30
2023-05-11T13:41:46.977Z,17.40
2023-05-11T13:44:14.911Z,17.20
2023-05-11T13:46:42.793Z,17.30
2023-05-11T13:49:11.465Z,17.30
2023-05-11T13:51:40.039Z,17.30
2023-05-11T13:54:08.153Z,17.10
2023-05-11T13:56:36.169Z,17.20
2023-05-11T13:59:03.998Z,17.10
2023-05-11T14:01:32.661Z,17.00
2023-05-11T14:04:00.554Z,16.90
2023-05-11T14:06:28.673Z,16.80
2023-05-11T14:08:56.530Z,16.80
2023-05-11T14:11:24.407Z,16.80
2023-05-11T14:13:53.594Z,16.60
2023-05-11T14:16:22.302Z,16.60
2023-05-11T14:18:51.037Z,16.50
2023-05-11T14:21:19.068Z,16.50
2023-05-11T14:24:01.976Z,16.60
2023-05-11T14:26:34.612Z,16.50
2023-05-11T14:29:02.342Z,16.50
2023-05-11T14:31:32.468Z,16.60
2023-05-11T14:34:00.565Z,16.80
2023-05-11T14:36:28.536Z,17.10
2023-05-11T14:38:56.761Z,17.20
2023-05-11T14:41:24.577Z,17.40
2023-05-11T14:43:52.487Z,17.20
2023-05-11T14:46:22.470Z,17.30
2023-05-11T14:48:53.027Z,17.20
2023-05-11T14:51:21.186Z,17.20
2023-05-11T14:53:48.977Z,17.10
2023-05-11T14:56:17.496Z,17.00
2023-05-11T14:58:46.186Z,16.90
2023-05-11T15:01:14.784Z,16.90
2023-05-11T15:03:43.015Z,17.00
2023-05-11T15:06:11.414Z,16.90
2023-05-11T15:08:39.467Z,16.80
2023-05-11T15:11:07.227Z,16.60
2023-05-11T15:13:35.203Z,16.70
2023-05-11T15:16:05.531Z,16.70
2023-05-11T15:18:35.770Z,16.70
2023-05-11T15:21:04.810Z,16.50
2023-05-11T15:23:32.785Z,16.50
2023-05-11T15:26:00.806Z,16.50
2023-05-11T15:28:28.894Z,16.50
2023-05-11T15:30:56.643Z,16.50
2023-05-11T15:33:24.324Z,16.60
2023-05-11T15:35:53.108Z,16.70
2023-05-11T15:38:20.937Z,16.70
2023-05-11T15:40:48.804Z,16.70
2023-05-11T15:43:16.950Z,16.70
2023-05-11T15:45:45.205Z,16.90
2023-05-11T15:48:13.293Z,17.00
2023-05-11T15:50:41.176Z,17.20
2023-05-11T15:53:09.153Z,17.10
2023-05-11T15:55:37.326Z,17.00
2023-05-11T15:58:08.597Z,17.00
2023-05-11T16:00:36.721Z,17.30
2023-05-11T16:03:07.213Z,17.30
2023-05-11T16:05:37.355Z,17.20
2023-05-11T16:08:06.873Z,17.20
2023-05-11T16:10:35.052Z,17.00
2023-05-11T16:13:02.802Z,17.00
2023-05-11T16:15:31.548Z,16.90
2023-05-11T16:18:01.031Z,16.80
2023-05-11T16:20:31.522Z,16.80
2023-05-11T16:22:59.208Z,16.50
2023-05-11T16:25:27.220Z,16.30
2023-05-11T16:27:54.869Z,16.20
2023-05-11T16:30:25.409Z,16.20
2023-05-11T16:32:54.312Z,16.00
2023-05-11T16:35:22.146Z,15.90
2023-05-11T16:37:49.944Z,16.30
2023-05-11T16:40:21.246Z,16.50
2023-05-11T16:42:49.505Z,16.30
2023-05-11T16:45:17.487Z,16.10
2023-05-11T16:47:46.242Z,16.00
2023-05-11T16:50:14.920Z,15.80
2023-05-11T16:52:43.672Z,15.60
2023-05-11T16:55:12.165Z,15.60
2023-05-11T16:57:39.888Z,15.60
2023-05-11T17:00:10.116Z,15.40
2023-05-11T17:02:38.277Z,15.20
2023-05-11T17:05:10.714Z,15.00
2023-05-11T17:07:38.939Z,14.80
2023-05-11T17:10:08.247Z,14.60
2023-05-11T17:12:36.211Z,14.50
2023-05-11T17:15:09.603Z,14.50
2023-05-11T17:17:38.306Z,14.30
2023-05-11T17:20:07.964Z,14.20
2023-05-11T17:22:36.340Z,14.30
2023-05-11T17:25:05.993Z,14.20
2023-05-11T17:27:37.315Z,14.10
2023-05-11T17:30:07.437Z,14.10
2023-05-11T17:32:37.372Z,14.00
2023-05-11T17:35:07.521Z,14.00
2023-05-11T17:37:35.417Z,13.90
2023-05-11T17:40:05.672Z,13.90
2023-05-11T17:42:34.274Z,13.90
2023-05-11T17:45:02.368Z,13.90
2023-05-11T17:47:35.607Z,13.80
2023-05-11T17:50:04.580Z,13.80
2023-05-11T17:52:33.738Z,13.80
2023-05-11T17:55:02.889Z,13.90
2023-05-11T17:57:30.762Z,13.90
2023-05-11T17:59:59.388Z,13.90
2023-05-11T18:02:27.244Z,13.90
2023-05-11T18:04:55.115Z,13.90
2023-05-11T18:07:22.861Z,13.90
2023-05-11T18:09:50.912Z,14.00
2023-05-11T18:12:18.671Z,14.00
2023-05-11T18:14:46.507Z,14.00
2023-05-11T18:17:14.457Z,14.00
2023-05-11T18:19:42.278Z,13.90
2023-05-11T18:22:12.535Z,13.90
2023-05-11T18:24:40.405Z,13.80
2023-05-11T18:27:08.543Z,13.80
2023-05-11T18:29:37.548Z,13.80
2023-05-11T18:32:06.097Z,13.80
2023-05-11T18:34:34.276Z,13.70
2023-05-11T18:37:03.014Z,13.70
2023-05-11T18:39:31.175Z,13.60
2023-05-11T18:42:01.538Z,13.60
2023-05-11T18:44:29.520Z,13.60
2023-05-11T18:46:58.208Z,13.60
2023-05-11T18:49:26.418Z,13.50
2023-05-11T18:51:54.328Z,13.50
2023-05-11T18:54:22.461Z,13.50
2023-05-11T18:56:50.434Z,13.50
2023-05-11T18:59:18.513Z,13.50
2023-05-11T19:01:48.408Z,13.50
2023-05-11T19:04:19.685Z,13.50
2023-05-11T19:06:48.047Z,13.50
2023-05-11T19:09:15.850Z,13.50
2023-05-11T19:11:43.914Z,13.50
2023-05-11T19:14:14.757Z,13.50
2023-05-11T19:16:43.072Z,13.50
2023-05-11T19:19:11.770Z,13.50
2023-05-11T19:21:42.541Z,13.50
2023-05-11T19:24:11.755Z,13.50
2023-05-11T19:26:39.750Z,13.60
2023-05-11T19:29:09.705Z,13.50
2023-05-11T19:31:37.744Z,13.60
2023-05-11T19:34:06.959Z,13.60
2023-05-11T19:36:35.323Z,13.60
2023-05-11T19:39:04.507Z,13.60
2023-05-11T19:41:33.408Z,13.70
2023-05-11T19:44:04.540Z,13.70
2023-05-11T19:46:32.879Z,13.70
2023-05-11T19:49:00.733Z,13.80
2023-05-11T19:51:28.574Z,13.70
2023-05-11T19:53:56.280Z,13.70
2023-05-11T19:56:24.227Z,13.70
2023-05-11T19:58:51.896Z,13.60
2023-05-11T20:01:20.345Z,13.50
2023-05-11T20:03:48.732Z,13.50
2023-05-11T20:06:16.766Z,13.30
2023-05-11T20:08:46.477Z,13.30
2023-05-11T20:11:16.435Z,13.30
2023-05-11T20:13:45.531Z,13.20
2023-05-11T20:16:13.602Z,13.20
2023-05-11T20:18:41.796Z,13.20
2023-05-11T20:21:10.157Z,13.20
2023-05-11T20:23:39.361Z,13.20
2023-05-11T20:26:07.272Z,13.30
2023-05-11T20:28:35.208Z,13.30
2023-05-11T20:31:03.043Z,13.30
2023-05-11T20:36:02.139Z,13.30
2023-05-11T20:38:29.988Z,13.30
2023-05-11T20:40:58.749Z,13.40
2023-05-11T20:43:27.280Z,13.40
2023-05-11T20:45:55.764Z,13.30
2023-05-11T20:48:32.451Z,13.30
2023-05-11T20:51:07.053Z,13.30
2023-05-11T20:53:35.054Z,13.30
2023-05-11T20:56:03.290Z,13.30
2023-05-11T20:58:32.333Z,13.40
2023-05-11T21:01:00.124Z,13.30
2023-05-11T21:03:28.620Z,13.30
2023-05-11T21:05:57.522Z,13.30
2023-05-11T21:08:25.813Z,13.30
2023-05-11T21:10:53.623Z,13.30
2023-05-11T21:13:21.343Z,13.30
2023-05-11T21:15:49.207Z,13.30
2023-05-11T21:18:17.279Z,13.30
2023-05-11T21:20:45.043Z,13.30
2023-05-11T21:23:14.253Z,13.30
2023-05-11T21:25:42.015Z,13.30
2023-05-11T21:28:09.939Z,13.30
2023-05-11T21:30:37.732Z,13.30
2023-05-11T21:33:06.222Z,13.20
2023-05-11T21:35:34.129Z,13.20
2023-05-11T21:38:01.917Z,13.20
2023-05-11T21:40:29.793Z,13.20
2023-05-11T21:42:57.629Z,13.20
2023-05-11T21:45:25.436Z,13.20
2023-05-11T21:47:53.465Z,13.20
2023-05-11T21:50:21.565Z,13.20
2023-05-11T21:52:51.947Z,13.20
2023-05-11T21:55:19.883Z,13.30
2023-05-11T21:57:47.453Z,13.30
2023-05-11T22:00:18.802Z,13.30
2023-05-11T22:02:46.755Z,13.20
2023-05-11T22:05:14.433Z,13.20
2023-05-11T22:07:42.275Z,13.20
2023-05-11T22:10:12.277Z,13.20
2023-05-11T22:12:40.264Z,13.30
2023-05-11T22:15:09.147Z,13.20
2023-05-11T22:17:37.730Z,13.20
2023-05-11T22:20:06.886Z,13.20
2023-05-11T22:22:36.026Z,13.20
2023-05-11T22:25:04.628Z,13.20
2023-05-11T22:27:32.505Z,13.20
2023-05-11T22:30:00.066Z,13.20
2023-05-11T22:32:28.497Z,13.20
2023-05-11T22:35:01.420Z,13.20
2023-05-11T22:37:29.133Z,13.10
2023-05-11T22:39:56.993Z,13.20
2023-05-11T22:42:24.572Z,13.20
2023-05-11T22:44:52.473Z,13.10
2023-05-11T22:47:20.050Z,13.10
2023-05-11T22:49:48.188Z,13.10
2023-05-11T22:52:16.928Z,13.10
2023-05-11T22:54:44.599Z,13.10
2023-05-11T22:57:16.135Z,13.10
2023-05-11T22:59:43.942Z,13.10
2023-05-11T23:02:12.302Z,13.10
2023-05-11T23:04:40.061Z,13.10
2023-05-11T23:07:11.864Z,13.10
2023-05-11T23:09:39.492Z,13.10
2023-05-11T23:12:08.190Z,13.10
2023-05-11T23:14:36.047Z,13.10
2023-05-11T23:17:03.621Z,13.10
2023-05-11T23:19:31.231Z,13.10
2023-05-11T23:21:58.900Z,13.00
2023-05-11T23:24:26.991Z,13.10
2023-05-11T23:26:54.976Z,13.00
2023-05-11T23:29:22.946Z,13.00
2023-05-11T23:31:53.691Z,13.00
2023-05-11T23:34:22.022Z,13.00
2023-05-11T23:36:50.178Z,13.10
2023-05-11T23:39:18.114Z,13.00
2023-05-11T23:41:46.061Z,13.10
2023-05-11T23:44:14.218Z,13.10
2023-05-11T23:46:41.998Z,13.10
2023-05-11T23:49:09.858Z,13.10
2023-05-11T23:51:37.481Z,13.10
2023-05-11T23:54:05.482Z,13.10
2023-05-11T23:56:33.331Z,13.10
2023-05-11T23:59:01.182Z,13.10
